PWSweather.com
Personal Weather Stations
Station Observations
MENWDWX1
Menstrie, ScotlandGB

MenstrieScotlandGB

Lat: 56.148322, Lon: -3.85483

Elevation: 62

Station Type: Davis Vantage Pro 2

High Low Average
Temperature 37.4°F3.0°C 22.9°F-5.1°C 31.8°F-0.1°C
Dew Point 29.2°F-1.6°C 17.9°F-7.8°C 24.7°F-4.1°C
Winds 16.1 mph 25.9 kmh Calm Calm 5.0 mph WSW8.0 kmh WSW
Wind Gusts 23.0 mph37.0 kmh -- 7.0 mph11.3 kmh
Humidity 81% 65% 75%
Pressure 29.97 in1014.9 mb 29.46 in997.6 mb -
Precipitation 0.00 in0.0 mm - -
Hour Temp Dew Point Humidity Winds Wind Gusts Pressure Precip Precip Rate Daily Precip Total
12:00 AM 33.7°F0.9°C 26.0°F-3.3°C 73% 9.2 mph W14.8 kmh W 10.4 mph16.7 kmh 29.97 in1014.9 mb - 0.00 in0.0 mm 0.00 in0.0 mm
12:05 AM 34.3°F1.3°C 26.2°F-3.2°C 72% 9.2 mph WSW14.8 kmh WSW 11.5 mph18.5 kmh 29.97 in1014.9 mb - 0.00 in0.0 mm 0.00 in0.0 mm
12:10 AM 34.8°F1.6°C 26.3°F-3.2°C 71% 10.4 mph W16.7 kmh W 15.0 mph24.1 kmh 29.97 in1014.9 mb - 0.00 in0.0 mm 0.00 in0.0 mm
12:15 AM 35.3°F1.8°C 26.5°F-3.1°C 70% 13.8 mph W22.2 kmh W 20.7 mph33.3 kmh 29.96 in1014.6 mb - 0.00 in0.0 mm 0.00 in0.0 mm
12:20 AM 35.8°F2.1°C 26.6°F-3.0°C 69% 13.8 mph W22.2 kmh W 23.0 mph37.0 kmh 29.96 in1014.6 mb - 0.00 in0.0 mm 0.00 in0.0 mm
12:25 AM 36.1°F2.3°C 26.5°F-3.1°C 68% 12.7 mph W20.4 kmh W 21.9 mph35.2 kmh 29.96 in1014.6 mb - 0.00 in0.0 mm 0.00 in0.0 mm
12:30 AM 36.0°F2.2°C 26.4°F-3.1°C 68% 13.8 mph W22.2 kmh W 19.6 mph31.5 kmh 29.97 in1014.9 mb - 0.00 in0.0 mm 0.00 in0.0 mm
12:35 AM 36.2°F2.3°C 26.3°F-3.2°C 67% 16.1 mph W25.9 kmh W 19.6 mph31.5 kmh 29.96 in1014.6 mb - 0.00 in0.0 mm 0.00 in0.0 mm
12:40 AM 36.4°F2.4°C 26.1°F-3.3°C 66% 13.8 mph W22.2 kmh W 21.9 mph35.2 kmh 29.97 in1014.9 mb - 0.00 in0.0 mm 0.00 in0.0 mm
12:45 AM 36.2°F2.3°C 25.9°F-3.4°C 66% 13.8 mph W22.2 kmh W 16.1 mph25.9 kmh 29.97 in1014.9 mb - 0.00 in0.0 mm 0.00 in0.0 mm
12:50 AM 35.8°F2.1°C 25.9°F-3.4°C 67% 8.1 mph W13.0 kmh W 15.0 mph24.1 kmh 29.97 in1014.9 mb - 0.00 in0.0 mm 0.00 in0.0 mm
12:55 AM 35.2°F1.8°C 25.7°F-3.5°C 68% 6.9 mph WNW11.1 kmh WNW 10.4 mph16.7 kmh 29.97 in1014.9 mb - 0.00 in0.0 mm 0.00 in0.0 mm
01:00 AM 34.7°F1.5°C 25.6°F-3.6°C 69% 8.1 mph WNW13.0 kmh WNW 12.7 mph20.4 kmh 29.97 in1014.9 mb - 0.00 in0.0 mm 0.00 in0.0 mm
01:05 AM 34.6°F1.4°C 25.8°F-3.4°C 70% 9.2 mph WNW14.8 kmh WNW 12.7 mph20.4 kmh 29.97 in1014.9 mb - 0.00 in0.0 mm 0.00 in0.0 mm
01:10 AM 34.7°F1.5°C 25.6°F-3.6°C 69% 10.4 mph NW16.7 kmh NW 13.8 mph22.2 kmh 29.97 in1014.9 mb - 0.00 in0.0 mm 0.00 in0.0 mm
01:15 AM 35.0°F1.7°C 25.9°F-3.4°C 69% 9.2 mph WNW14.8 kmh WNW 12.7 mph20.4 kmh 29.97 in1014.9 mb - 0.00 in0.0 mm 0.00 in0.0 mm
01:20 AM 35.0°F1.7°C 25.5°F-3.6°C 68% 9.2 mph WNW14.8 kmh WNW 13.8 mph22.2 kmh 29.97 in1014.9 mb - 0.00 in0.0 mm 0.00 in0.0 mm
01:25 AM 34.8°F1.6°C 25.7°F-3.5°C 69% 8.1 mph W13.0 kmh W 11.5 mph18.5 kmh 29.96 in1014.6 mb - 0.00 in0.0 mm 0.00 in0.0 mm
01:30 AM 34.6°F1.4°C 25.5°F-3.6°C 69% 9.2 mph W14.8 kmh W 11.5 mph18.5 kmh 29.96 in1014.6 mb - 0.00 in0.0 mm 0.00 in0.0 mm
01:35 AM 34.3°F1.3°C 25.5°F-3.6°C 70% 5.8 mph WNW9.3 kmh WNW 10.4 mph16.7 kmh 29.96 in1014.6 mb - 0.00 in0.0 mm 0.00 in0.0 mm
01:40 AM 33.9°F1.1°C 25.5°F-3.6°C 71% 9.2 mph NW14.8 kmh NW 12.7 mph20.4 kmh 29.96 in1014.6 mb - 0.00 in0.0 mm 0.00 in0.0 mm
01:45 AM 33.6°F0.9°C 25.2°F-3.8°C 71% 11.5 mph WNW18.5 kmh WNW 15.0 mph24.1 kmh 29.96 in1014.6 mb - 0.00 in0.0 mm 0.00 in0.0 mm
01:50 AM 34.0°F1.1°C 25.3°F-3.7°C 70% 13.8 mph NW22.2 kmh NW 19.6 mph31.5 kmh 29.96 in1014.6 mb - 0.00 in0.0 mm 0.00 in0.0 mm
01:55 AM 34.6°F1.4°C 25.5°F-3.6°C 69% 12.7 mph WNW20.4 kmh WNW 17.3 mph27.8 kmh 29.96 in1014.6 mb - 0.00 in0.0 mm 0.00 in0.0 mm
02:00 AM 34.8°F1.6°C 25.3°F-3.7°C 68% 12.7 mph NW20.4 kmh NW 17.3 mph27.8 kmh 29.96 in1014.6 mb - 0.00 in0.0 mm 0.00 in0.0 mm
02:05 AM 34.9°F1.6°C 25.4°F-3.7°C 68% 10.4 mph WNW16.7 kmh WNW 17.3 mph27.8 kmh 29.96 in1014.6 mb - 0.00 in0.0 mm 0.00 in0.0 mm
02:10 AM 34.8°F1.6°C 25.3°F-3.7°C 68% 9.2 mph WNW14.8 kmh WNW 11.5 mph18.5 kmh 29.96 in1014.6 mb - 0.00 in0.0 mm 0.00 in0.0 mm
02:15 AM 34.8°F1.6°C 25.0°F-3.9°C 67% 9.2 mph WNW14.8 kmh WNW 11.5 mph18.5 kmh 29.96 in1014.6 mb - 0.00 in0.0 mm 0.00 in0.0 mm
02:20 AM 34.8°F1.6°C 25.0°F-3.9°C 67% 12.7 mph NW20.4 kmh NW 18.4 mph29.6 kmh 29.96 in1014.6 mb - 0.00 in0.0 mm 0.00 in0.0 mm
02:25 AM 34.8°F1.6°C 25.0°F-3.9°C 67% 12.7 mph WNW20.4 kmh WNW 17.3 mph27.8 kmh 29.96 in1014.6 mb - 0.00 in0.0 mm 0.00 in0.0 mm
02:30 AM 34.8°F1.6°C 25.0°F-3.9°C 67% 9.2 mph WNW14.8 kmh WNW 12.7 mph20.4 kmh 29.95 in1014.2 mb - 0.00 in0.0 mm 0.00 in0.0 mm
02:35 AM 34.9°F1.6°C 24.7°F-4.1°C 66% 10.4 mph W16.7 kmh W 15.0 mph24.1 kmh 29.95 in1014.2 mb - 0.00 in0.0 mm 0.00 in0.0 mm
02:40 AM 35.1°F1.7°C 24.5°F-4.2°C 65% 9.2 mph W14.8 kmh W 11.5 mph18.5 kmh 29.96 in1014.6 mb - 0.00 in0.0 mm 0.00 in0.0 mm
02:45 AM 35.1°F1.7°C 24.9°F-3.9°C 66% 8.1 mph WSW13.0 kmh WSW 11.5 mph18.5 kmh 29.95 in1014.2 mb - 0.00 in0.0 mm 0.00 in0.0 mm
02:50 AM 34.9°F1.6°C 24.7°F-4.1°C 66% 8.1 mph W13.0 kmh W 11.5 mph18.5 kmh 29.96 in1014.6 mb - 0.00 in0.0 mm 0.00 in0.0 mm
02:55 AM 34.8°F1.6°C 24.6°F-4.1°C 66% 6.9 mph W11.1 kmh W 11.5 mph18.5 kmh 29.96 in1014.6 mb - 0.00 in0.0 mm 0.00 in0.0 mm
03:00 AM 34.6°F1.4°C 24.4°F-4.2°C 66% 6.9 mph W11.1 kmh W 11.5 mph18.5 kmh 29.96 in1014.6 mb - 0.00 in0.0 mm 0.00 in0.0 mm
03:05 AM 34.3°F1.3°C 24.5°F-4.2°C 67% 9.2 mph W14.8 kmh W 11.5 mph18.5 kmh 29.96 in1014.6 mb - 0.00 in0.0 mm 0.00 in0.0 mm
03:10 AM 34.2°F1.2°C 24.4°F-4.2°C 67% 5.8 mph WNW9.3 kmh WNW 9.2 mph14.8 kmh 29.95 in1014.2 mb - 0.00 in0.0 mm 0.00 in0.0 mm
03:15 AM 34.3°F1.3°C 24.4°F-4.2°C 67% 6.9 mph W11.1 kmh W 9.2 mph14.8 kmh 29.96 in1014.6 mb - 0.00 in0.0 mm 0.00 in0.0 mm
03:20 AM 34.4°F1.3°C 24.6°F-4.1°C 67% 5.8 mph WSW9.3 kmh WSW 9.2 mph14.8 kmh 29.96 in1014.6 mb - 0.00 in0.0 mm 0.00 in0.0 mm
03:25 AM 33.9°F1.1°C 24.4°F-4.2°C 68% 2.3 mph WSW3.7 kmh WSW 3.5 mph5.6 kmh 29.96 in1014.6 mb - 0.00 in0.0 mm 0.00 in0.0 mm
03:30 AM 33.2°F0.7°C 24.1°F-4.4°C 69% 1.2 mph WSW1.9 kmh WSW 3.5 mph5.6 kmh 29.96 in1014.6 mb - 0.00 in0.0 mm 0.00 in0.0 mm
03:35 AM 32.5°F0.3°C 23.8°F-4.6°C 70% 1.2 mph WSW1.9 kmh WSW 2.3 mph3.7 kmh 29.96 in1014.6 mb - 0.00 in0.0 mm 0.00 in0.0 mm
03:40 AM 31.8°F-0.1°C 24.2°F-4.3°C 73% 2.3 mph WSW3.7 kmh WSW 3.5 mph5.6 kmh 29.95 in1014.2 mb - 0.00 in0.0 mm 0.00 in0.0 mm
03:45 AM 31.3°F-0.4°C 23.7°F-4.6°C 73% Calm Calm -- 29.95 in1014.2 mb - 0.00 in0.0 mm 0.00 in0.0 mm
03:50 AM 30.9°F-0.6°C 23.6°F-4.7°C 74% 3.5 mph WSW5.6 kmh WSW 6.9 mph11.1 kmh 29.95 in1014.2 mb - 0.00 in0.0 mm 0.00 in0.0 mm
03:55 AM 31.0°F-0.6°C 24.0°F-4.4°C 75% 2.3 mph W3.7 kmh W 5.8 mph9.3 kmh 29.95 in1014.2 mb - 0.00 in0.0 mm 0.00 in0.0 mm
04:00 AM 31.5°F-0.3°C 24.4°F-4.2°C 75% 4.6 mph WNW7.4 kmh WNW 6.9 mph11.1 kmh 29.95 in1014.2 mb - 0.00 in0.0 mm 0.00 in0.0 mm
04:05 AM 32.0°F0.0°C 24.6°F-4.1°C 74% 1.2 mph WSW1.9 kmh WSW 3.5 mph5.6 kmh 29.95 in1014.2 mb - 0.00 in0.0 mm 0.00 in0.0 mm
04:10 AM 31.9°F-0.1°C 24.2°F-4.3°C 73% 3.5 mph NW5.6 kmh NW 5.8 mph9.3 kmh 29.95 in1014.2 mb - 0.00 in0.0 mm 0.00 in0.0 mm
04:15 AM 31.9°F-0.1°C 24.6°F-4.1°C 74% 4.6 mph WNW7.4 kmh WNW 8.1 mph13.0 kmh 29.95 in1014.2 mb - 0.00 in0.0 mm 0.00 in0.0 mm
04:20 AM 32.4°F0.2°C 24.8°F-4.0°C 73% 5.8 mph WNW9.3 kmh WNW 10.4 mph16.7 kmh 29.94 in1013.9 mb - 0.00 in0.0 mm 0.00 in0.0 mm
04:25 AM 32.9°F0.5°C 25.2°F-3.8°C 73% 6.9 mph WNW11.1 kmh WNW 11.5 mph18.5 kmh 29.94 in1013.9 mb - 0.00 in0.0 mm 0.00 in0.0 mm
04:30 AM 33.5°F0.8°C 25.1°F-3.8°C 71% 8.1 mph WNW13.0 kmh WNW 10.4 mph16.7 kmh 29.94 in1013.9 mb - 0.00 in0.0 mm 0.00 in0.0 mm
04:35 AM 33.7°F0.9°C 25.3°F-3.7°C 71% 8.1 mph WNW13.0 kmh WNW 11.5 mph18.5 kmh 29.94 in1013.9 mb - 0.00 in0.0 mm 0.00 in0.0 mm
04:40 AM 33.7°F0.9°C 25.3°F-3.7°C 71% 8.1 mph WNW13.0 kmh WNW 11.5 mph18.5 kmh 29.94 in1013.9 mb - 0.00 in0.0 mm 0.00 in0.0 mm
04:45 AM 33.7°F0.9°C 25.3°F-3.7°C 71% 8.1 mph WNW13.0 kmh WNW 11.5 mph18.5 kmh 29.94 in1013.9 mb - 0.00 in0.0 mm 0.00 in0.0 mm
04:50 AM 33.8°F1.0°C 25.4°F-3.7°C 71% 6.9 mph WNW11.1 kmh WNW 11.5 mph18.5 kmh 29.94 in1013.9 mb - 0.00 in0.0 mm 0.00 in0.0 mm
04:55 AM 33.9°F1.1°C 25.5°F-3.6°C 71% 5.8 mph WNW9.3 kmh WNW 11.5 mph18.5 kmh 29.94 in1013.9 mb - 0.00 in0.0 mm 0.00 in0.0 mm
05:00 AM 33.7°F0.9°C 25.3°F-3.7°C 71% 6.9 mph NW11.1 kmh NW 11.5 mph18.5 kmh 29.94 in1013.9 mb - 0.00 in0.0 mm 0.00 in0.0 mm
05:05 AM 33.7°F0.9°C 25.3°F-3.7°C 71% 8.1 mph W13.0 kmh W 11.5 mph18.5 kmh 29.93 in1013.5 mb - 0.00 in0.0 mm 0.00 in0.0 mm
05:10 AM 33.8°F1.0°C 25.4°F-3.7°C 71% 8.1 mph WNW13.0 kmh WNW 11.5 mph18.5 kmh 29.93 in1013.5 mb - 0.00 in0.0 mm 0.00 in0.0 mm
05:15 AM 33.9°F1.1°C 25.1°F-3.8°C 70% 6.9 mph W11.1 kmh W 11.5 mph18.5 kmh 29.94 in1013.9 mb - 0.00 in0.0 mm 0.00 in0.0 mm
05:20 AM 33.9°F1.1°C 25.1°F-3.8°C 70% 6.9 mph W11.1 kmh W 11.5 mph18.5 kmh 29.93 in1013.5 mb - 0.00 in0.0 mm 0.00 in0.0 mm
05:25 AM 33.8°F1.0°C 25.0°F-3.9°C 70% 3.5 mph WSW5.6 kmh WSW 4.6 mph7.4 kmh 29.93 in1013.5 mb - 0.00 in0.0 mm 0.00 in0.0 mm
05:30 AM 33.1°F0.6°C 25.0°F-3.9°C 72% 5.8 mph W9.3 kmh W 8.1 mph13.0 kmh 29.93 in1013.5 mb - 0.00 in0.0 mm 0.00 in0.0 mm
05:35 AM 32.5°F0.3°C 24.8°F-4.0°C 73% 8.1 mph WNW13.0 kmh WNW 11.5 mph18.5 kmh 29.93 in1013.5 mb - 0.00 in0.0 mm 0.00 in0.0 mm
05:40 AM 32.6°F0.3°C 24.9°F-3.9°C 73% 6.9 mph WNW11.1 kmh WNW 10.4 mph16.7 kmh 29.93 in1013.5 mb - 0.00 in0.0 mm 0.00 in0.0 mm
05:45 AM 33.0°F0.6°C 25.3°F-3.7°C 73% 4.6 mph W7.4 kmh W 8.1 mph13.0 kmh 29.93 in1013.5 mb - 0.00 in0.0 mm 0.00 in0.0 mm
05:50 AM 33.0°F0.6°C 24.9°F-3.9°C 72% 4.6 mph WSW7.4 kmh WSW 6.9 mph11.1 kmh 29.93 in1013.5 mb - 0.00 in0.0 mm 0.00 in0.0 mm
05:55 AM 32.5°F0.3°C 24.8°F-4.0°C 73% 4.6 mph WSW7.4 kmh WSW 5.8 mph9.3 kmh 29.93 in1013.5 mb - 0.00 in0.0 mm 0.00 in0.0 mm
06:00 AM 32.0°F0.0°C 24.3°F-4.3°C 73% 3.5 mph W5.6 kmh W 3.5 mph5.6 kmh 29.93 in1013.5 mb - 0.00 in0.0 mm 0.00 in0.0 mm
06:05 AM 31.6°F-0.2°C 24.3°F-4.3°C 74% 4.6 mph WNW7.4 kmh WNW 3.5 mph5.6 kmh 29.93 in1013.5 mb - 0.00 in0.0 mm 0.00 in0.0 mm
06:10 AM 31.4°F-0.3°C 24.4°F-4.2°C 75% Calm Calm 2.3 mph3.7 kmh 29.93 in1013.5 mb - 0.00 in0.0 mm 0.00 in0.0 mm
06:15 AM 31.0°F-0.6°C 24.0°F-4.4°C 75% 4.6 mph NW7.4 kmh NW 4.6 mph7.4 kmh 29.93 in1013.5 mb - 0.00 in0.0 mm 0.00 in0.0 mm
06:20 AM 30.8°F-0.7°C 24.1°F-4.4°C 76% 3.5 mph WNW5.6 kmh WNW 4.6 mph7.4 kmh 29.93 in1013.5 mb - 0.00 in0.0 mm 0.00 in0.0 mm
06:25 AM 31.0°F-0.6°C 24.3°F-4.3°C 76% 3.5 mph W5.6 kmh W 5.8 mph9.3 kmh 29.93 in1013.5 mb - 0.00 in0.0 mm 0.00 in0.0 mm
06:30 AM 31.1°F-0.5°C 24.4°F-4.2°C 76% 6.9 mph NW11.1 kmh NW 11.5 mph18.5 kmh 29.92 in1013.2 mb - 0.00 in0.0 mm 0.00 in0.0 mm
06:35 AM 31.8°F-0.1°C 25.1°F-3.8°C 76% 9.2 mph NW14.8 kmh NW 11.5 mph18.5 kmh 29.92 in1013.2 mb - 0.00 in0.0 mm 0.00 in0.0 mm
06:40 AM 32.5°F0.3°C 25.1°F-3.8°C 74% 6.9 mph NW11.1 kmh NW 11.5 mph18.5 kmh 29.92 in1013.2 mb - 0.00 in0.0 mm 0.00 in0.0 mm
06:45 AM 32.9°F0.5°C 25.2°F-3.8°C 73% 5.8 mph WNW9.3 kmh WNW 9.2 mph14.8 kmh 29.92 in1013.2 mb - 0.00 in0.0 mm 0.00 in0.0 mm
06:50 AM 32.9°F0.5°C 25.2°F-3.8°C 73% 4.6 mph WNW7.4 kmh WNW 9.2 mph14.8 kmh 29.92 in1013.2 mb - 0.00 in0.0 mm 0.00 in0.0 mm
06:55 AM 32.9°F0.5°C 25.2°F-3.8°C 73% 8.1 mph WNW13.0 kmh WNW 11.5 mph18.5 kmh 29.92 in1013.2 mb - 0.00 in0.0 mm 0.00 in0.0 mm
07:00 AM 32.9°F0.5°C 25.2°F-3.8°C 73% 4.6 mph W7.4 kmh W 9.2 mph14.8 kmh 29.92 in1013.2 mb - 0.00 in0.0 mm 0.00 in0.0 mm
07:05 AM 32.8°F0.4°C 25.1°F-3.8°C 73% 3.5 mph W5.6 kmh W 6.9 mph11.1 kmh 29.91 in1012.9 mb - 0.00 in0.0 mm 0.00 in0.0 mm
07:10 AM 32.6°F0.3°C 25.2°F-3.8°C 74% 3.5 mph W5.6 kmh W 3.5 mph5.6 kmh 29.91 in1012.9 mb - 0.00 in0.0 mm 0.00 in0.0 mm
07:15 AM 32.5°F0.3°C 25.1°F-3.8°C 74% 4.6 mph W7.4 kmh W 3.5 mph5.6 kmh 29.91 in1012.9 mb - 0.00 in0.0 mm 0.00 in0.0 mm
07:20 AM 32.3°F0.2°C 24.9°F-3.9°C 74% 2.3 mph W3.7 kmh W 3.5 mph5.6 kmh 29.91 in1012.9 mb - 0.00 in0.0 mm 0.00 in0.0 mm
07:25 AM 32.0°F0.0°C 25.0°F-3.9°C 75% 2.3 mph W3.7 kmh W 3.5 mph5.6 kmh 29.91 in1012.9 mb - 0.00 in0.0 mm 0.00 in0.0 mm
07:30 AM 31.8°F-0.1°C 24.8°F-4.0°C 75% Calm Calm -- 29.91 in1012.9 mb - 0.00 in0.0 mm 0.00 in0.0 mm
07:35 AM 31.5°F-0.3°C 24.8°F-4.0°C 76% 1.2 mph N1.9 kmh N 3.5 mph5.6 kmh 29.91 in1012.9 mb - 0.00 in0.0 mm 0.00 in0.0 mm
07:40 AM 30.9°F-0.6°C 24.2°F-4.3°C 76% Calm Calm -- 29.91 in1012.9 mb - 0.00 in0.0 mm 0.00 in0.0 mm
07:45 AM 30.3°F-0.9°C 23.7°F-4.6°C 76% 1.2 mph N1.9 kmh N 3.5 mph5.6 kmh 29.90 in1012.5 mb - 0.00 in0.0 mm 0.00 in0.0 mm
07:50 AM 29.9°F-1.2°C 23.9°F-4.5°C 78% 4.6 mph W7.4 kmh W 8.1 mph13.0 kmh 29.90 in1012.5 mb - 0.00 in0.0 mm 0.00 in0.0 mm
07:55 AM 30.1°F-1.1°C 24.1°F-4.4°C 78% 3.5 mph NW5.6 kmh NW 6.9 mph11.1 kmh 29.90 in1012.5 mb - 0.00 in0.0 mm 0.00 in0.0 mm
08:00 AM 30.6°F-0.8°C 24.6°F-4.1°C 78% 5.8 mph NW9.3 kmh NW 8.1 mph13.0 kmh 29.90 in1012.5 mb - 0.00 in0.0 mm 0.00 in0.0 mm
08:05 AM 31.1°F-0.5°C 25.1°F-3.8°C 78% 5.8 mph NW9.3 kmh NW 9.2 mph14.8 kmh 29.90 in1012.5 mb - 0.00 in0.0 mm 0.00 in0.0 mm
08:10 AM 31.4°F-0.3°C 25.0°F-3.9°C 77% 3.5 mph NW5.6 kmh NW 6.9 mph11.1 kmh 29.90 in1012.5 mb - 0.00 in0.0 mm 0.00 in0.0 mm
08:15 AM 31.5°F-0.3°C 25.1°F-3.8°C 77% 4.6 mph NW7.4 kmh NW 9.2 mph14.8 kmh 29.90 in1012.5 mb - 0.00 in0.0 mm 0.00 in0.0 mm
08:20 AM 31.6°F-0.2°C 25.2°F-3.8°C 77% 6.9 mph WNW11.1 kmh WNW 9.2 mph14.8 kmh 29.90 in1012.5 mb - 0.00 in0.0 mm 0.00 in0.0 mm
08:25 AM 31.9°F-0.1°C 25.5°F-3.6°C 77% 3.5 mph WNW5.6 kmh WNW 9.2 mph14.8 kmh 29.90 in1012.5 mb - 0.00 in0.0 mm 0.00 in0.0 mm
08:30 AM 32.1°F0.1°C 25.7°F-3.5°C 77% 1.2 mph NW1.9 kmh NW 3.5 mph5.6 kmh 29.90 in1012.5 mb - 0.00 in0.0 mm 0.00 in0.0 mm
08:35 AM 32.0°F0.0°C 25.6°F-3.6°C 77% 1.2 mph NW1.9 kmh NW 3.5 mph5.6 kmh 29.91 in1012.9 mb - 0.00 in0.0 mm 0.00 in0.0 mm
08:40 AM 31.7°F-0.2°C 25.3°F-3.7°C 77% 4.6 mph NNW7.4 kmh NNW 8.1 mph13.0 kmh 29.90 in1012.5 mb - 0.00 in0.0 mm 0.00 in0.0 mm
08:45 AM 31.4°F-0.3°C 25.0°F-3.9°C 77% 5.8 mph NW9.3 kmh NW 6.9 mph11.1 kmh 29.90 in1012.5 mb - 0.00 in0.0 mm 0.00 in0.0 mm
08:50 AM 31.5°F-0.3°C 25.4°F-3.7°C 78% 4.6 mph NW7.4 kmh NW 8.1 mph13.0 kmh 29.90 in1012.5 mb - 0.00 in0.0 mm 0.00 in0.0 mm
08:55 AM 31.8°F-0.1°C 25.4°F-3.7°C 77% 6.9 mph NW11.1 kmh NW 10.4 mph16.7 kmh 29.90 in1012.5 mb - 0.00 in0.0 mm 0.00 in0.0 mm
09:00 AM 32.0°F0.0°C 25.6°F-3.6°C 77% 6.9 mph NW11.1 kmh NW 11.5 mph18.5 kmh 29.90 in1012.5 mb - 0.00 in0.0 mm 0.00 in0.0 mm
09:05 AM 32.3°F0.2°C 25.9°F-3.4°C 77% 9.2 mph NW14.8 kmh NW 11.5 mph18.5 kmh 29.90 in1012.5 mb - 0.00 in0.0 mm 0.00 in0.0 mm
09:10 AM 32.6°F0.3°C 25.9°F-3.4°C 76% 6.9 mph NW11.1 kmh NW 9.2 mph14.8 kmh 29.90 in1012.5 mb - 0.00 in0.0 mm 0.00 in0.0 mm
09:15 AM 32.5°F0.3°C 25.8°F-3.4°C 76% 6.9 mph NW11.1 kmh NW 13.8 mph22.2 kmh 29.89 in1012.2 mb - 0.00 in0.0 mm 0.00 in0.0 mm
09:20 AM 32.8°F0.4°C 26.1°F-3.3°C 76% 11.5 mph NW18.5 kmh NW 13.8 mph22.2 kmh 29.89 in1012.2 mb - 0.00 in0.0 mm 0.00 in0.0 mm
09:25 AM 33.4°F0.8°C 26.6°F-3.0°C 76% 8.1 mph NW13.0 kmh NW 11.5 mph18.5 kmh 29.89 in1012.2 mb - 0.00 in0.0 mm 0.00 in0.0 mm
09:30 AM 33.5°F0.8°C 26.4°F-3.1°C 75% 6.9 mph NW11.1 kmh NW 10.4 mph16.7 kmh 29.89 in1012.2 mb - 0.00 in0.0 mm 0.00 in0.0 mm
09:35 AM 33.2°F0.7°C 26.1°F-3.3°C 75% 10.4 mph NW16.7 kmh NW 15.0 mph24.1 kmh 29.89 in1012.2 mb - 0.00 in0.0 mm 0.00 in0.0 mm
09:40 AM 32.8°F0.4°C 26.1°F-3.3°C 76% 5.8 mph NW9.3 kmh NW 10.4 mph16.7 kmh 29.89 in1012.2 mb - 0.00 in0.0 mm 0.00 in0.0 mm
09:45 AM 32.5°F0.3°C 25.8°F-3.4°C 76% 6.9 mph NW11.1 kmh NW 11.5 mph18.5 kmh 29.89 in1012.2 mb - 0.00 in0.0 mm 0.00 in0.0 mm
09:50 AM 32.4°F0.2°C 26.0°F-3.3°C 77% 9.2 mph NW14.8 kmh NW 12.7 mph20.4 kmh 29.89 in1012.2 mb - 0.00 in0.0 mm 0.00 in0.0 mm
09:55 AM 32.3°F0.2°C 25.9°F-3.4°C 77% 5.8 mph NW9.3 kmh NW 9.2 mph14.8 kmh 29.89 in1012.2 mb - 0.00 in0.0 mm 0.00 in0.0 mm
10:00 AM 32.5°F0.3°C 26.1°F-3.3°C 77% 6.9 mph WNW11.1 kmh WNW 9.2 mph14.8 kmh 29.89 in1012.2 mb - 0.00 in0.0 mm 0.00 in0.0 mm
10:05 AM 33.1°F0.6°C 26.6°F-3.0°C 77% 5.8 mph W9.3 kmh W 6.9 mph11.1 kmh 29.88 in1011.9 mb - 0.00 in0.0 mm 0.00 in0.0 mm
10:10 AM 33.5°F0.8°C 26.7°F-2.9°C 76% 5.8 mph NW9.3 kmh NW 8.1 mph13.0 kmh 29.88 in1011.9 mb - 0.00 in0.0 mm 0.00 in0.0 mm
10:15 AM 33.7°F0.9°C 26.9°F-2.8°C 76% 4.6 mph WNW7.4 kmh WNW 9.2 mph14.8 kmh 29.88 in1011.9 mb - 0.00 in0.0 mm 0.00 in0.0 mm
10:20 AM 34.0°F1.1°C 27.2°F-2.7°C 76% 5.8 mph W9.3 kmh W 8.1 mph13.0 kmh 29.88 in1011.9 mb - 0.00 in0.0 mm 0.00 in0.0 mm
10:25 AM 34.2°F1.2°C 27.4°F-2.6°C 76% 5.8 mph WNW9.3 kmh WNW 9.2 mph14.8 kmh 29.87 in1011.5 mb - 0.00 in0.0 mm 0.00 in0.0 mm
10:30 AM 34.4°F1.3°C 27.3°F-2.6°C 75% 5.8 mph WNW9.3 kmh WNW 10.4 mph16.7 kmh 29.87 in1011.5 mb - 0.00 in0.0 mm 0.00 in0.0 mm
10:35 AM 34.5°F1.4°C 27.4°F-2.6°C 75% 5.8 mph W9.3 kmh W 11.5 mph18.5 kmh 29.87 in1011.5 mb - 0.00 in0.0 mm 0.00 in0.0 mm
10:40 AM 34.7°F1.5°C 27.6°F-2.4°C 75% 6.9 mph WNW11.1 kmh WNW 10.4 mph16.7 kmh 29.87 in1011.5 mb - 0.00 in0.0 mm 0.00 in0.0 mm
10:45 AM 34.8°F1.6°C 27.7°F-2.4°C 75% 4.6 mph WNW7.4 kmh WNW 9.2 mph14.8 kmh 29.86 in1011.2 mb - 0.00 in0.0 mm 0.00 in0.0 mm
10:50 AM 34.8°F1.6°C 27.7°F-2.4°C 75% 5.8 mph NW9.3 kmh NW 11.5 mph18.5 kmh 29.86 in1011.2 mb - 0.00 in0.0 mm 0.00 in0.0 mm
10:55 AM 34.9°F1.6°C 27.8°F-2.3°C 75% 5.8 mph NW9.3 kmh NW 10.4 mph16.7 kmh 29.86 in1011.2 mb - 0.00 in0.0 mm 0.00 in0.0 mm
11:00 AM 34.9°F1.6°C 27.8°F-2.3°C 75% 8.1 mph NW13.0 kmh NW 10.4 mph16.7 kmh 29.86 in1011.2 mb - 0.00 in0.0 mm 0.00 in0.0 mm
11:05 AM 35.0°F1.7°C 27.9°F-2.3°C 75% 6.9 mph NW11.1 kmh NW 9.2 mph14.8 kmh 29.85 in1010.8 mb - 0.00 in0.0 mm 0.00 in0.0 mm
11:10 AM 35.1°F1.7°C 28.0°F-2.2°C 75% 4.6 mph NW7.4 kmh NW 8.1 mph13.0 kmh 29.85 in1010.8 mb - 0.00 in0.0 mm 0.00 in0.0 mm
11:15 AM 35.0°F1.7°C 27.8°F-2.3°C 75% 3.5 mph NW5.6 kmh NW 3.5 mph5.6 kmh 29.84 in1010.5 mb - 0.00 in0.0 mm 0.00 in0.0 mm
11:20 AM 35.0°F1.7°C 27.8°F-2.3°C 75% 3.5 mph WNW5.6 kmh WNW 5.8 mph9.3 kmh 29.84 in1010.5 mb - 0.00 in0.0 mm 0.00 in0.0 mm
11:25 AM 35.1°F1.7°C 28.0°F-2.2°C 75% 4.6 mph NW7.4 kmh NW 6.9 mph11.1 kmh 29.84 in1010.5 mb - 0.00 in0.0 mm 0.00 in0.0 mm
11:30 AM 35.4°F1.9°C 28.3°F-2.1°C 75% 3.5 mph WNW5.6 kmh WNW 4.6 mph7.4 kmh 29.84 in1010.5 mb - 0.00 in0.0 mm 0.00 in0.0 mm
11:35 AM 35.8°F2.1°C 28.3°F-2.1°C 74% 2.3 mph WNW3.7 kmh WNW 5.8 mph9.3 kmh 29.84 in1010.5 mb - 0.00 in0.0 mm 0.00 in0.0 mm
11:40 AM 36.0°F2.2°C 28.5°F-1.9°C 74% 3.5 mph WSW5.6 kmh WSW 5.8 mph9.3 kmh 29.83 in1010.2 mb - 0.00 in0.0 mm 0.00 in0.0 mm
11:45 AM 36.0°F2.2°C 28.5°F-1.9°C 74% 5.8 mph WSW9.3 kmh WSW 8.1 mph13.0 kmh 29.83 in1010.2 mb - 0.00 in0.0 mm 0.00 in0.0 mm
11:50 AM 35.9°F2.2°C 28.4°F-2.0°C 74% 4.6 mph WSW7.4 kmh WSW 8.1 mph13.0 kmh 29.83 in1010.2 mb - 0.00 in0.0 mm 0.00 in0.0 mm
11:55 AM 35.9°F2.2°C 28.4°F-2.0°C 74% 5.8 mph W9.3 kmh W 8.1 mph13.0 kmh 29.83 in1010.2 mb - 0.00 in0.0 mm 0.00 in0.0 mm
12:00 PM 35.8°F2.1°C 28.4°F-2.0°C 74% 5.8 mph WNW9.3 kmh WNW 9.2 mph14.8 kmh 29.82 in1009.8 mb - 0.00 in0.0 mm 0.00 in0.0 mm
12:05 PM 35.9°F2.2°C 28.1°F-2.2°C 73% 5.8 mph W9.3 kmh W 8.1 mph13.0 kmh 29.82 in1009.8 mb - 0.00 in0.0 mm 0.00 in0.0 mm
12:10 PM 36.0°F2.2°C 28.1°F-2.2°C 73% 5.8 mph W9.3 kmh W 10.4 mph16.7 kmh 29.82 in1009.8 mb - 0.00 in0.0 mm 0.00 in0.0 mm
12:15 PM 36.2°F2.3°C 28.4°F-2.0°C 73% 5.8 mph W9.3 kmh W 10.4 mph16.7 kmh 29.82 in1009.8 mb - 0.00 in0.0 mm 0.00 in0.0 mm
12:20 PM 36.4°F2.4°C 28.6°F-1.9°C 73% 9.2 mph WSW14.8 kmh WSW 11.5 mph18.5 kmh 29.82 in1009.8 mb - 0.00 in0.0 mm 0.00 in0.0 mm
12:25 PM 36.6°F2.6°C 28.4°F-2.0°C 72% 9.2 mph W14.8 kmh W 12.7 mph20.4 kmh 29.82 in1009.8 mb - 0.00 in0.0 mm 0.00 in0.0 mm
12:30 PM 36.7°F2.6°C 28.5°F-1.9°C 72% 9.2 mph W14.8 kmh W 11.5 mph18.5 kmh 29.81 in1009.5 mb - 0.00 in0.0 mm 0.00 in0.0 mm
12:35 PM 36.9°F2.7°C 28.4°F-2.0°C 71% 6.9 mph WNW11.1 kmh WNW 11.5 mph18.5 kmh 29.81 in1009.5 mb - 0.00 in0.0 mm 0.00 in0.0 mm
12:40 PM 37.0°F2.8°C 28.1°F-2.2°C 70% 9.2 mph W14.8 kmh W 11.5 mph18.5 kmh 29.81 in1009.5 mb - 0.00 in0.0 mm 0.00 in0.0 mm
12:45 PM 37.0°F2.8°C 28.1°F-2.2°C 70% 8.1 mph W13.0 kmh W 11.5 mph18.5 kmh 29.81 in1009.5 mb - 0.00 in0.0 mm 0.00 in0.0 mm
12:50 PM 36.8°F2.7°C 28.2°F-2.1°C 71% 9.2 mph W14.8 kmh W 12.7 mph20.4 kmh 29.80 in1009.1 mb - 0.00 in0.0 mm 0.00 in0.0 mm
12:55 PM 36.4°F2.4°C 27.9°F-2.3°C 71% 8.1 mph W13.0 kmh W 10.4 mph16.7 kmh 29.80 in1009.1 mb - 0.00 in0.0 mm 0.00 in0.0 mm
01:00 PM 36.1°F2.3°C 27.6°F-2.4°C 71% 6.9 mph W11.1 kmh W 12.7 mph20.4 kmh 29.80 in1009.1 mb - 0.00 in0.0 mm 0.00 in0.0 mm
01:05 PM 35.9°F2.2°C 27.7°F-2.4°C 72% 8.1 mph W13.0 kmh W 11.5 mph18.5 kmh 29.80 in1009.1 mb - 0.00 in0.0 mm 0.00 in0.0 mm
01:10 PM 35.6°F2.0°C 27.8°F-2.3°C 73% 6.9 mph W11.1 kmh W 10.4 mph16.7 kmh 29.80 in1009.1 mb - 0.00 in0.0 mm 0.00 in0.0 mm
01:15 PM 35.8°F2.1°C 27.9°F-2.3°C 73% 6.9 mph W11.1 kmh W 9.2 mph14.8 kmh 29.79 in1008.8 mb - 0.00 in0.0 mm 0.00 in0.0 mm
01:20 PM 36.1°F2.3°C 28.3°F-2.1°C 73% 6.9 mph W11.1 kmh W 8.1 mph13.0 kmh 29.79 in1008.8 mb - 0.00 in0.0 mm 0.00 in0.0 mm
01:25 PM 36.6°F2.6°C 28.7°F-1.8°C 73% 8.1 mph W13.0 kmh W 8.1 mph13.0 kmh 29.79 in1008.8 mb - 0.00 in0.0 mm 0.00 in0.0 mm
01:30 PM 36.8°F2.7°C 28.6°F-1.9°C 72% 5.8 mph W9.3 kmh W 8.1 mph13.0 kmh 29.79 in1008.8 mb - 0.00 in0.0 mm 0.00 in0.0 mm
01:35 PM 37.0°F2.8°C 28.8°F-1.8°C 72% 4.6 mph W7.4 kmh W 8.1 mph13.0 kmh 29.78 in1008.5 mb - 0.00 in0.0 mm 0.00 in0.0 mm
01:40 PM 36.9°F2.7°C 28.7°F-1.8°C 72% 6.9 mph WNW11.1 kmh WNW 10.4 mph16.7 kmh 29.78 in1008.5 mb - 0.00 in0.0 mm 0.00 in0.0 mm
01:45 PM 37.0°F2.8°C 28.8°F-1.8°C 72% 6.9 mph WSW11.1 kmh WSW 10.4 mph16.7 kmh 29.77 in1008.1 mb - 0.00 in0.0 mm 0.00 in0.0 mm
01:50 PM 37.1°F2.8°C 28.9°F-1.7°C 72% 5.8 mph W9.3 kmh W 10.4 mph16.7 kmh 29.77 in1008.1 mb - 0.00 in0.0 mm 0.00 in0.0 mm
01:55 PM 37.2°F2.9°C 29.0°F-1.7°C 72% 4.6 mph WSW7.4 kmh WSW 6.9 mph11.1 kmh 29.77 in1008.1 mb - 0.00 in0.0 mm 0.00 in0.0 mm
02:00 PM 37.4°F3.0°C 29.2°F-1.6°C 72% 5.8 mph WSW9.3 kmh WSW 9.2 mph14.8 kmh 29.76 in1007.8 mb - 0.00 in0.0 mm 0.00 in0.0 mm
02:05 PM 37.4°F3.0°C 28.9°F-1.7°C 71% 6.9 mph WSW11.1 kmh WSW 8.1 mph13.0 kmh 29.76 in1007.8 mb - 0.00 in0.0 mm 0.00 in0.0 mm
02:10 PM 37.4°F3.0°C 29.2°F-1.6°C 72% 5.8 mph W9.3 kmh W 8.1 mph13.0 kmh 29.76 in1007.8 mb - 0.00 in0.0 mm 0.00 in0.0 mm
02:15 PM 37.2°F2.9°C 29.0°F-1.7°C 72% 5.8 mph W9.3 kmh W 6.9 mph11.1 kmh 29.76 in1007.8 mb - 0.00 in0.0 mm 0.00 in0.0 mm
02:20 PM 37.1°F2.8°C 28.9°F-1.7°C 72% 3.5 mph W5.6 kmh W 5.8 mph9.3 kmh 29.76 in1007.8 mb - 0.00 in0.0 mm 0.00 in0.0 mm
02:25 PM 36.8°F2.7°C 28.6°F-1.9°C 72% 3.5 mph WSW5.6 kmh WSW 3.5 mph5.6 kmh 29.75 in1007.5 mb - 0.00 in0.0 mm 0.00 in0.0 mm
02:30 PM 36.4°F2.4°C 28.6°F-1.9°C 73% 3.5 mph WSW5.6 kmh WSW 5.8 mph9.3 kmh 29.75 in1007.5 mb - 0.00 in0.0 mm 0.00 in0.0 mm
02:35 PM 35.8°F2.1°C 28.3°F-2.1°C 74% 3.5 mph W5.6 kmh W 3.5 mph5.6 kmh 29.75 in1007.5 mb - 0.00 in0.0 mm 0.00 in0.0 mm
02:40 PM 35.3°F1.8°C 28.2°F-2.1°C 75% 3.5 mph WNW5.6 kmh WNW 5.8 mph9.3 kmh 29.75 in1007.5 mb - 0.00 in0.0 mm 0.00 in0.0 mm
02:45 PM 35.0°F1.7°C 28.2°F-2.1°C 76% 4.6 mph WSW7.4 kmh WSW 9.2 mph14.8 kmh 29.74 in1007.1 mb - 0.00 in0.0 mm 0.00 in0.0 mm
02:50 PM 34.8°F1.6°C 28.4°F-2.0°C 77% 5.8 mph W9.3 kmh W 8.1 mph13.0 kmh 29.74 in1007.1 mb - 0.00 in0.0 mm 0.00 in0.0 mm
02:55 PM 34.8°F1.6°C 28.3°F-2.1°C 77% 4.6 mph W7.4 kmh W 8.1 mph13.0 kmh 29.74 in1007.1 mb - 0.00 in0.0 mm 0.00 in0.0 mm
03:00 PM 34.7°F1.5°C 28.2°F-2.1°C 77% 4.6 mph W7.4 kmh W 6.9 mph11.1 kmh 29.74 in1007.1 mb - 0.00 in0.0 mm 0.00 in0.0 mm
03:05 PM 34.6°F1.4°C 28.1°F-2.2°C 77% 4.6 mph WSW7.4 kmh WSW 6.9 mph11.1 kmh 29.74 in1007.1 mb - 0.00 in0.0 mm 0.00 in0.0 mm
03:10 PM 34.5°F1.4°C 28.0°F-2.2°C 77% 4.6 mph W7.4 kmh W 6.9 mph11.1 kmh 29.74 in1007.1 mb - 0.00 in0.0 mm 0.00 in0.0 mm
03:15 PM 34.3°F1.3°C 27.8°F-2.3°C 77% 3.5 mph WNW5.6 kmh WNW 3.5 mph5.6 kmh 29.74 in1007.1 mb - 0.00 in0.0 mm 0.00 in0.0 mm
03:20 PM 34.2°F1.2°C 27.7°F-2.4°C 77% 5.8 mph WNW9.3 kmh WNW 5.8 mph9.3 kmh 29.74 in1007.1 mb - 0.00 in0.0 mm 0.00 in0.0 mm
03:25 PM 34.2°F1.2°C 27.7°F-2.4°C 77% 5.8 mph WNW9.3 kmh WNW 8.1 mph13.0 kmh 29.73 in1006.8 mb - 0.00 in0.0 mm 0.00 in0.0 mm
03:30 PM 34.2°F1.2°C 27.7°F-2.4°C 77% 5.8 mph NW9.3 kmh NW 11.5 mph18.5 kmh 29.73 in1006.8 mb - 0.00 in0.0 mm 0.00 in0.0 mm
03:35 PM 34.1°F1.2°C 27.6°F-2.4°C 77% 8.1 mph WNW13.0 kmh WNW 11.5 mph18.5 kmh 29.73 in1006.8 mb - 0.00 in0.0 mm 0.00 in0.0 mm
03:40 PM 34.0°F1.1°C 27.5°F-2.5°C 77% 5.8 mph WNW9.3 kmh WNW 6.9 mph11.1 kmh 29.73 in1006.8 mb - 0.00 in0.0 mm 0.00 in0.0 mm
03:45 PM 33.9°F1.1°C 27.4°F-2.6°C 77% 4.6 mph WNW7.4 kmh WNW 6.9 mph11.1 kmh 29.73 in1006.8 mb - 0.00 in0.0 mm 0.00 in0.0 mm
03:50 PM 33.8°F1.0°C 27.4°F-2.6°C 77% 6.9 mph WNW11.1 kmh WNW 10.4 mph16.7 kmh 29.72 in1006.4 mb - 0.00 in0.0 mm 0.00 in0.0 mm
03:55 PM 33.7°F0.9°C 27.3°F-2.6°C 77% 4.6 mph WNW7.4 kmh WNW 9.2 mph14.8 kmh 29.72 in1006.4 mb - 0.00 in0.0 mm 0.00 in0.0 mm
04:00 PM 33.7°F0.9°C 27.3°F-2.6°C 77% 5.8 mph NW9.3 kmh NW 9.2 mph14.8 kmh 29.71 in1006.1 mb - 0.00 in0.0 mm 0.00 in0.0 mm
04:05 PM 33.7°F0.9°C 27.2°F-2.7°C 77% 4.6 mph NW7.4 kmh NW 5.8 mph9.3 kmh 29.71 in1006.1 mb - 0.00 in0.0 mm 0.00 in0.0 mm
04:10 PM 33.6°F0.9°C 27.2°F-2.7°C 77% 4.6 mph NW7.4 kmh NW 5.8 mph9.3 kmh 29.71 in1006.1 mb - 0.00 in0.0 mm 0.00 in0.0 mm
04:15 PM 33.5°F0.8°C 27.1°F-2.7°C 77% 3.5 mph NNW5.6 kmh NNW 5.8 mph9.3 kmh 29.71 in1006.1 mb - 0.00 in0.0 mm 0.00 in0.0 mm
04:20 PM 33.3°F0.7°C 26.9°F-2.8°C 77% 2.3 mph NW3.7 kmh NW 3.5 mph5.6 kmh 29.71 in1006.1 mb - 0.00 in0.0 mm 0.00 in0.0 mm
04:25 PM 32.9°F0.5°C 26.5°F-3.1°C 77% Calm Calm 1.2 mph1.9 kmh 29.70 in1005.8 mb - 0.00 in0.0 mm 0.00 in0.0 mm
04:30 PM 32.6°F0.3°C 26.2°F-3.2°C 77% Calm Calm 1.2 mph1.9 kmh 29.70 in1005.8 mb - 0.00 in0.0 mm 0.00 in0.0 mm
04:35 PM 32.2°F0.1°C 26.1°F-3.3°C 78% Calm Calm 1.2 mph1.9 kmh 29.70 in1005.8 mb - 0.00 in0.0 mm 0.00 in0.0 mm
04:40 PM 31.7°F-0.2°C 25.7°F-3.5°C 78% 2.3 mph NW3.7 kmh NW 3.5 mph5.6 kmh 29.70 in1005.8 mb - 0.00 in0.0 mm 0.00 in0.0 mm
04:45 PM 31.1°F-0.5°C 25.1°F-3.8°C 78% 2.3 mph NW3.7 kmh NW 3.5 mph5.6 kmh 29.70 in1005.8 mb - 0.00 in0.0 mm 0.00 in0.0 mm
04:50 PM 30.6°F-0.8°C 24.8°F-4.0°C 79% 2.3 mph N3.7 kmh N 3.5 mph5.6 kmh 29.69 in1005.4 mb - 0.00 in0.0 mm 0.00 in0.0 mm
04:55 PM 30.2°F-1.0°C 24.5°F-4.2°C 79% Calm Calm -- 29.69 in1005.4 mb - 0.00 in0.0 mm 0.00 in0.0 mm
05:00 PM 30.2°F-1.0°C 24.5°F-4.2°C 79% Calm Calm 1.2 mph1.9 kmh 29.69 in1005.4 mb - 0.00 in0.0 mm 0.00 in0.0 mm
05:05 PM 30.0°F-1.1°C 24.3°F-4.3°C 79% 2.3 mph NW3.7 kmh NW 3.5 mph5.6 kmh 29.69 in1005.4 mb - 0.00 in0.0 mm 0.00 in0.0 mm
05:10 PM 29.9°F-1.2°C 24.2°F-4.3°C 79% Calm Calm 1.2 mph1.9 kmh 29.69 in1005.4 mb - 0.00 in0.0 mm 0.00 in0.0 mm
05:15 PM 29.9°F-1.2°C 24.1°F-4.4°C 79% Calm Calm -- 29.69 in1005.4 mb - 0.00 in0.0 mm 0.00 in0.0 mm
05:20 PM 29.6°F-1.3°C 23.9°F-4.5°C 79% 1.2 mph ENE1.9 kmh ENE 2.3 mph3.7 kmh 29.68 in1005.1 mb - 0.00 in0.0 mm 0.00 in0.0 mm
05:25 PM 29.3°F-1.5°C 23.6°F-4.7°C 79% 1.2 mph ENE1.9 kmh ENE 1.2 mph1.9 kmh 29.68 in1005.1 mb - 0.00 in0.0 mm 0.00 in0.0 mm
05:30 PM 28.9°F-1.7°C 23.2°F-4.9°C 79% Calm Calm 2.3 mph3.7 kmh 29.68 in1005.1 mb - 0.00 in0.0 mm 0.00 in0.0 mm
05:35 PM 28.6°F-1.9°C 22.9°F-5.1°C 79% 1.2 mph ENE1.9 kmh ENE 2.3 mph3.7 kmh 29.68 in1005.1 mb - 0.00 in0.0 mm 0.00 in0.0 mm
05:40 PM 28.3°F-2.1°C 22.6°F-5.2°C 79% Calm Calm 2.3 mph3.7 kmh 29.68 in1005.1 mb - 0.00 in0.0 mm 0.00 in0.0 mm
05:45 PM 28.1°F-2.2°C 22.4°F-5.3°C 79% 1.2 mph ENE1.9 kmh ENE 1.2 mph1.9 kmh 29.68 in1005.1 mb - 0.00 in0.0 mm 0.00 in0.0 mm
05:50 PM 28.1°F-2.2°C 22.4°F-5.3°C 79% 3.5 mph ENE5.6 kmh ENE 3.5 mph5.6 kmh 29.68 in1005.1 mb - 0.00 in0.0 mm 0.00 in0.0 mm
05:55 PM 28.6°F-1.9°C 22.9°F-5.1°C 79% 2.3 mph NNE3.7 kmh NNE 4.6 mph7.4 kmh 29.67 in1004.7 mb - 0.00 in0.0 mm 0.00 in0.0 mm
06:00 PM 29.2°F-1.6°C 23.5°F-4.7°C 79% 2.3 mph N3.7 kmh N 3.5 mph5.6 kmh 29.67 in1004.7 mb - 0.00 in0.0 mm 0.00 in0.0 mm
06:05 PM 29.4°F-1.4°C 23.7°F-4.6°C 79% Calm Calm 1.2 mph1.9 kmh 29.67 in1004.7 mb - 0.00 in0.0 mm 0.00 in0.0 mm
06:10 PM 29.1°F-1.6°C 23.4°F-4.8°C 79% Calm Calm -- 29.67 in1004.7 mb - 0.00 in0.0 mm 0.00 in0.0 mm
06:15 PM 28.6°F-1.9°C 22.9°F-5.1°C 79% Calm Calm -- 29.67 in1004.7 mb - 0.00 in0.0 mm 0.00 in0.0 mm
06:20 PM 28.2°F-2.1°C 22.6°F-5.2°C 79% 2.3 mph NW3.7 kmh NW 3.5 mph5.6 kmh 29.67 in1004.7 mb - 0.00 in0.0 mm 0.00 in0.0 mm
06:25 PM 28.0°F-2.2°C 22.3°F-5.4°C 79% Calm Calm 1.2 mph1.9 kmh 29.66 in1004.4 mb - 0.00 in0.0 mm 0.00 in0.0 mm
06:30 PM 27.8°F-2.3°C 22.1°F-5.5°C 79% Calm Calm -- 29.66 in1004.4 mb - 0.00 in0.0 mm 0.00 in0.0 mm
06:35 PM 27.7°F-2.4°C 22.0°F-5.6°C 79% Calm Calm -- 29.66 in1004.4 mb - 0.00 in0.0 mm 0.00 in0.0 mm
06:40 PM 27.6°F-2.4°C 21.9°F-5.6°C 79% Calm Calm -- 29.66 in1004.4 mb - 0.00 in0.0 mm 0.00 in0.0 mm
06:45 PM 27.4°F-2.6°C 21.7°F-5.7°C 79% 2.3 mph NW3.7 kmh NW 3.5 mph5.6 kmh 29.65 in1004.1 mb - 0.00 in0.0 mm 0.00 in0.0 mm
06:50 PM 27.4°F-2.6°C 21.7°F-5.7°C 79% 1.2 mph NW1.9 kmh NW 2.3 mph3.7 kmh 29.65 in1004.1 mb - 0.00 in0.0 mm 0.00 in0.0 mm
06:55 PM 27.1°F-2.7°C 21.5°F-5.8°C 79% 1.2 mph NW1.9 kmh NW 2.3 mph3.7 kmh 29.65 in1004.1 mb - 0.00 in0.0 mm 0.00 in0.0 mm
07:00 PM 26.9°F-2.8°C 21.3°F-5.9°C 79% Calm Calm 1.2 mph1.9 kmh 29.65 in1004.1 mb - 0.00 in0.0 mm 0.00 in0.0 mm
07:05 PM 26.9°F-2.8°C 21.3°F-5.9°C 79% Calm Calm -- 29.65 in1004.1 mb - 0.00 in0.0 mm 0.00 in0.0 mm
07:10 PM 26.9°F-2.8°C 21.6°F-5.8°C 80% Calm Calm -- 29.64 in1003.7 mb - 0.00 in0.0 mm 0.00 in0.0 mm
07:15 PM 26.8°F-2.9°C 21.4°F-5.9°C 80% Calm Calm -- 29.64 in1003.7 mb - 0.00 in0.0 mm 0.00 in0.0 mm
07:20 PM 26.5°F-3.1°C 20.9°F-6.2°C 79% Calm Calm -- 29.64 in1003.7 mb - 0.00 in0.0 mm 0.00 in0.0 mm
07:25 PM 26.3°F-3.2°C 20.7°F-6.3°C 79% Calm Calm -- 29.64 in1003.7 mb - 0.00 in0.0 mm 0.00 in0.0 mm
07:30 PM 26.5°F-3.1°C 21.2°F-6.0°C 80% Calm Calm -- 29.63 in1003.4 mb - 0.00 in0.0 mm 0.00 in0.0 mm
07:35 PM 26.5°F-3.1°C 21.2°F-6.0°C 80% Calm Calm -- 29.63 in1003.4 mb - 0.00 in0.0 mm 0.00 in0.0 mm
07:40 PM 26.5°F-3.1°C 21.2°F-6.0°C 80% Calm Calm -- 29.62 in1003.0 mb - 0.00 in0.0 mm 0.00 in0.0 mm
07:45 PM 26.3°F-3.2°C 21.0°F-6.1°C 80% Calm Calm -- 29.62 in1003.0 mb - 0.00 in0.0 mm 0.00 in0.0 mm
07:50 PM 26.2°F-3.2°C 20.9°F-6.2°C 80% Calm Calm -- 29.62 in1003.0 mb - 0.00 in0.0 mm 0.00 in0.0 mm
07:55 PM 26.2°F-3.2°C 20.9°F-6.2°C 80% Calm Calm -- 29.61 in1002.7 mb - 0.00 in0.0 mm 0.00 in0.0 mm
08:00 PM 26.1°F-3.3°C 20.8°F-6.2°C 80% Calm Calm -- 29.61 in1002.7 mb - 0.00 in0.0 mm 0.00 in0.0 mm
08:05 PM 26.1°F-3.3°C 20.8°F-6.2°C 80% Calm Calm -- 29.61 in1002.7 mb - 0.00 in0.0 mm 0.00 in0.0 mm
08:10 PM 26.1°F-3.3°C 20.8°F-6.2°C 80% Calm Calm -- 29.61 in1002.7 mb - 0.00 in0.0 mm 0.00 in0.0 mm
08:15 PM 26.0°F-3.3°C 20.7°F-6.3°C 80% Calm Calm -- 29.61 in1002.7 mb - 0.00 in0.0 mm 0.00 in0.0 mm
08:20 PM 26.0°F-3.3°C 20.7°F-6.3°C 80% 2.3 mph SE3.7 kmh SE 3.5 mph5.6 kmh 29.61 in1002.7 mb - 0.00 in0.0 mm 0.00 in0.0 mm
08:25 PM 26.4°F-3.1°C 21.1°F-6.1°C 80% 1.2 mph SE1.9 kmh SE 3.5 mph5.6 kmh 29.60 in1002.4 mb - 0.00 in0.0 mm 0.00 in0.0 mm
08:30 PM 26.2°F-3.2°C 20.9°F-6.2°C 80% Calm Calm 1.2 mph1.9 kmh 29.60 in1002.4 mb - 0.00 in0.0 mm 0.00 in0.0 mm
08:35 PM 26.1°F-3.3°C 20.8°F-6.2°C 80% 1.2 mph SE1.9 kmh SE 3.5 mph5.6 kmh 29.60 in1002.4 mb - 0.00 in0.0 mm 0.00 in0.0 mm
08:40 PM 25.9°F-3.4°C 20.6°F-6.3°C 80% Calm Calm -- 29.60 in1002.4 mb - 0.00 in0.0 mm 0.00 in0.0 mm
08:45 PM 26.0°F-3.3°C 20.7°F-6.3°C 80% 1.2 mph SE1.9 kmh SE 2.3 mph3.7 kmh 29.59 in1002.0 mb - 0.00 in0.0 mm 0.00 in0.0 mm
08:50 PM 25.8°F-3.4°C 20.5°F-6.4°C 80% Calm Calm 1.2 mph1.9 kmh 29.59 in1002.0 mb - 0.00 in0.0 mm 0.00 in0.0 mm
08:55 PM 25.8°F-3.4°C 20.5°F-6.4°C 80% Calm Calm -- 29.58 in1001.7 mb - 0.00 in0.0 mm 0.00 in0.0 mm
09:00 PM 25.6°F-3.6°C 20.3°F-6.5°C 80% Calm Calm -- 29.58 in1001.7 mb - 0.00 in0.0 mm 0.00 in0.0 mm
09:05 PM 25.6°F-3.6°C 20.3°F-6.5°C 80% 2.3 mph SE3.7 kmh SE 3.5 mph5.6 kmh 29.57 in1001.4 mb - 0.00 in0.0 mm 0.00 in0.0 mm
09:10 PM 25.8°F-3.4°C 20.5°F-6.4°C 80% 1.2 mph SE1.9 kmh SE 2.3 mph3.7 kmh 29.57 in1001.4 mb - 0.00 in0.0 mm 0.00 in0.0 mm
09:15 PM 26.0°F-3.3°C 21.0°F-6.1°C 81% Calm Calm -- 29.57 in1001.4 mb - 0.00 in0.0 mm 0.00 in0.0 mm
09:20 PM 26.1°F-3.3°C 21.1°F-6.1°C 81% 1.2 mph SE1.9 kmh SE 3.5 mph5.6 kmh 29.57 in1001.4 mb - 0.00 in0.0 mm 0.00 in0.0 mm
09:25 PM 26.3°F-3.2°C 21.0°F-6.1°C 80% 1.2 mph SE1.9 kmh SE 2.3 mph3.7 kmh 29.57 in1001.4 mb - 0.00 in0.0 mm 0.00 in0.0 mm
09:30 PM 26.3°F-3.2°C 21.0°F-6.1°C 80% 2.3 mph SE3.7 kmh SE 3.5 mph5.6 kmh 29.57 in1001.4 mb - 0.00 in0.0 mm 0.00 in0.0 mm
09:35 PM 26.4°F-3.1°C 21.0°F-6.1°C 80% 1.2 mph SE1.9 kmh SE 1.2 mph1.9 kmh 29.56 in1001.0 mb - 0.00 in0.0 mm 0.00 in0.0 mm
09:40 PM 26.3°F-3.2°C 20.9°F-6.2°C 80% Calm Calm 2.3 mph3.7 kmh 29.56 in1001.0 mb - 0.00 in0.0 mm 0.00 in0.0 mm
09:45 PM 26.2°F-3.2°C 20.9°F-6.2°C 80% 1.2 mph SE1.9 kmh SE 2.3 mph3.7 kmh 29.55 in1000.7 mb - 0.00 in0.0 mm 0.00 in0.0 mm
09:50 PM 26.1°F-3.3°C 20.8°F-6.2°C 80% Calm Calm 1.2 mph1.9 kmh 29.55 in1000.7 mb - 0.00 in0.0 mm 0.00 in0.0 mm
09:55 PM 25.6°F-3.6°C 20.3°F-6.5°C 80% 1.2 mph SE1.9 kmh SE 2.3 mph3.7 kmh 29.55 in1000.7 mb - 0.00 in0.0 mm 0.00 in0.0 mm
10:00 PM 25.2°F-3.8°C 19.9°F-6.7°C 80% 1.2 mph SE1.9 kmh SE 2.3 mph3.7 kmh 29.54 in1000.3 mb - 0.00 in0.0 mm 0.00 in0.0 mm
10:05 PM 25.0°F-3.9°C 19.7°F-6.8°C 80% 1.2 mph SE1.9 kmh SE 1.2 mph1.9 kmh 29.54 in1000.3 mb - 0.00 in0.0 mm 0.00 in0.0 mm
10:10 PM 24.9°F-3.9°C 19.6°F-6.9°C 80% 1.2 mph SE1.9 kmh SE 2.3 mph3.7 kmh 29.53 in1000.0 mb - 0.00 in0.0 mm 0.00 in0.0 mm
10:15 PM 24.9°F-3.9°C 19.9°F-6.7°C 81% 1.2 mph SE1.9 kmh SE 3.5 mph5.6 kmh 29.53 in1000.0 mb - 0.00 in0.0 mm 0.00 in0.0 mm
10:20 PM 25.3°F-3.7°C 20.3°F-6.5°C 81% 3.5 mph ESE5.6 kmh ESE 3.5 mph5.6 kmh 29.53 in1000.0 mb - 0.00 in0.0 mm 0.00 in0.0 mm
10:25 PM 25.4°F-3.7°C 20.4°F-6.4°C 81% 2.3 mph ESE3.7 kmh ESE 3.5 mph5.6 kmh 29.52 in999.7 mb - 0.00 in0.0 mm 0.00 in0.0 mm
10:30 PM 25.2°F-3.8°C 19.9°F-6.7°C 80% Calm Calm 2.3 mph3.7 kmh 29.52 in999.7 mb - 0.00 in0.0 mm 0.00 in0.0 mm
10:35 PM 25.2°F-3.8°C 20.2°F-6.6°C 81% 1.2 mph ESE1.9 kmh ESE 1.2 mph1.9 kmh 29.52 in999.7 mb - 0.00 in0.0 mm 0.00 in0.0 mm
10:40 PM 25.1°F-3.8°C 20.1°F-6.6°C 81% Calm Calm 2.3 mph3.7 kmh 29.51 in999.3 mb - 0.00 in0.0 mm 0.00 in0.0 mm
10:45 PM 25.0°F-3.9°C 20.0°F-6.7°C 81% 2.3 mph N3.7 kmh N 2.3 mph3.7 kmh 29.51 in999.3 mb - 0.00 in0.0 mm 0.00 in0.0 mm
10:50 PM 25.0°F-3.9°C 20.0°F-6.7°C 81% Calm Calm -- 29.51 in999.3 mb - 0.00 in0.0 mm 0.00 in0.0 mm
10:55 PM 24.9°F-3.9°C 19.9°F-6.7°C 81% 1.2 mph E1.9 kmh E 2.3 mph3.7 kmh 29.50 in999.0 mb - 0.00 in0.0 mm 0.00 in0.0 mm
11:00 PM 24.7°F-4.1°C 19.7°F-6.8°C 81% 2.3 mph ENE3.7 kmh ENE 3.5 mph5.6 kmh 29.50 in999.0 mb - 0.00 in0.0 mm 0.00 in0.0 mm
11:05 PM 24.7°F-4.1°C 19.7°F-6.8°C 81% 1.2 mph ENE1.9 kmh ENE 2.3 mph3.7 kmh 29.50 in999.0 mb - 0.00 in0.0 mm 0.00 in0.0 mm
11:10 PM 24.7°F-4.1°C 19.7°F-6.8°C 81% 1.2 mph N1.9 kmh N 2.3 mph3.7 kmh 29.49 in998.6 mb - 0.00 in0.0 mm 0.00 in0.0 mm
11:15 PM 24.8°F-4.0°C 19.8°F-6.8°C 81% 2.3 mph NNE3.7 kmh NNE 3.5 mph5.6 kmh 29.48 in998.3 mb - 0.00 in0.0 mm 0.00 in0.0 mm
11:20 PM 25.0°F-3.9°C 20.0°F-6.7°C 81% 3.5 mph E5.6 kmh E 5.8 mph9.3 kmh 29.48 in998.3 mb - 0.00 in0.0 mm 0.00 in0.0 mm
11:25 PM 24.6°F-4.1°C 19.6°F-6.9°C 81% 2.3 mph E3.7 kmh E 3.5 mph5.6 kmh 29.48 in998.3 mb - 0.00 in0.0 mm 0.00 in0.0 mm
11:30 PM 24.2°F-4.3°C 19.2°F-7.1°C 81% 3.5 mph E5.6 kmh E 5.8 mph9.3 kmh 29.48 in998.3 mb - 0.00 in0.0 mm 0.00 in0.0 mm
11:35 PM 23.8°F-4.6°C 18.8°F-7.3°C 81% 1.2 mph E1.9 kmh E 1.2 mph1.9 kmh 29.48 in998.3 mb - 0.00 in0.0 mm 0.00 in0.0 mm
11:40 PM 23.5°F-4.7°C 18.5°F-7.5°C 81% Calm Calm -- 29.48 in998.3 mb - 0.00 in0.0 mm 0.00 in0.0 mm
11:45 PM 23.3°F-4.8°C 18.3°F-7.6°C 81% Calm Calm -- 29.47 in998.0 mb - 0.00 in0.0 mm 0.00 in0.0 mm
11:50 PM 23.0°F-5.0°C 18.0°F-7.8°C 81% Calm Calm -- 29.47 in998.0 mb - 0.00 in0.0 mm 0.00 in0.0 mm
11:55 PM 22.9°F-5.1°C 17.9°F-7.8°C 81% Calm Calm -- 29.46 in997.6 mb - 0.00 in0.0 mm 0.00 in0.0 mm